sensor_id;sensor_type;location;lat;lon;timestamp;P1;durP1;ratioP1;P2;durP2;ratioP2
61907;SDS011;47864;52.526;19.672;2022-10-31T00:01:49;60.17;;;30.83;;
61907;SDS011;47864;52.526;19.672;2022-10-31T00:03:58;47.03;;;26.00;;
61907;SDS011;47864;52.526;19.672;2022-10-31T00:06:00;44.00;;;26.20;;
61907;SDS011;47864;52.526;19.672;2022-10-31T00:08:12;49.38;;;28.40;;
61907;SDS011;47864;52.526;19.672;2022-10-31T00:10:16;49.67;;;29.92;;
61907;SDS011;47864;52.526;19.672;2022-10-31T00:12:25;65.40;;;29.00;;
61907;SDS011;47864;52.526;19.672;2022-10-31T00:14:36;77.43;;;32.50;;
61907;SDS011;47864;52.526;19.672;2022-10-31T00:16:40;98.68;;;32.17;;
61907;SDS011;47864;52.526;19.672;2022-10-31T00:18:54;76.80;;;31.77;;
61907;SDS011;47864;52.526;19.672;2022-10-31T00:20:59;63.00;;;29.10;;
61907;SDS011;47864;52.526;19.672;2022-10-31T00:23:08;67.65;;;27.77;;
61907;SDS011;47864;52.526;19.672;2022-10-31T00:25:12;63.17;;;26.67;;
61907;SDS011;47864;52.526;19.672;2022-10-31T00:27:20;51.65;;;26.05;;
61907;SDS011;47864;52.526;19.672;2022-10-31T00:29:26;72.95;;;30.13;;
61907;SDS011;47864;52.526;19.672;2022-10-31T00:31:46;46.92;;;25.92;;
61907;SDS011;47864;52.526;19.672;2022-10-31T00:33:53;50.03;;;27.45;;
61907;SDS011;47864;52.526;19.672;2022-10-31T00:36:12;61.00;;;30.20;;
61907;SDS011;47864;52.526;19.672;2022-10-31T00:38:31;63.13;;;26.95;;
61907;SDS011;47864;52.526;19.672;2022-10-31T00:40:53;56.47;;;28.47;;
61907;SDS011;47864;52.526;19.672;2022-10-31T00:43:04;128.90;;;36.33;;
61907;SDS011;47864;52.526;19.672;2022-10-31T00:45:12;59.00;;;29.15;;
61907;SDS011;47864;52.526;19.672;2022-10-31T00:47:24;75.00;;;32.70;;
61907;SDS011;47864;52.526;19.672;2022-10-31T00:49:34;64.47;;;30.35;;
61907;SDS011;47864;52.526;19.672;2022-10-31T00:51:38;97.05;;;32.97;;
61907;SDS011;47864;52.526;19.672;2022-10-31T00:53:43;71.85;;;30.75;;
61907;SDS011;47864;52.526;19.672;2022-10-31T00:55:49;54.30;;;28.02;;
61907;SDS011;47864;52.526;19.672;2022-10-31T00:57:54;55.85;;;29.30;;
61907;SDS011;47864;52.526;19.672;2022-10-31T00:59:57;55.55;;;28.95;;
61907;SDS011;47864;52.526;19.672;2022-10-31T01:02:02;69.95;;;29.77;;
61907;SDS011;47864;52.526;19.672;2022-10-31T01:04:11;72.10;;;27.58;;
61907;SDS011;47864;52.526;19.672;2022-10-31T01:06:29;49.92;;;25.88;;
61907;SDS011;47864;52.526;19.672;2022-10-31T01:08:34;59.45;;;26.45;;
61907;SDS011;47864;52.526;19.672;2022-10-31T01:11:07;37.45;;;24.52;;
61907;SDS011;47864;52.526;19.672;2022-10-31T01:13:36;38.42;;;23.27;;
61907;SDS011;47864;52.526;19.672;2022-10-31T01:15:38;53.80;;;25.08;;
61907;SDS011;47864;52.526;19.672;2022-10-31T01:18:14;57.42;;;25.63;;
61907;SDS011;47864;52.526;19.672;2022-10-31T01:20:33;55.20;;;26.00;;
61907;SDS011;47864;52.526;19.672;2022-10-31T01:22:55;53.03;;;23.02;;
61907;SDS011;47864;52.526;19.672;2022-10-31T01:25:28;54.60;;;25.00;;
61907;SDS011;47864;52.526;19.672;2022-10-31T01:27:43;43.97;;;23.13;;
61907;SDS011;47864;52.526;19.672;2022-10-31T01:29:54;51.15;;;24.25;;
61907;SDS011;47864;52.526;19.672;2022-10-31T01:32:09;54.58;;;23.88;;
61907;SDS011;47864;52.526;19.672;2022-10-31T01:34:35;56.10;;;26.27;;
61907;SDS011;47864;52.526;19.672;2022-10-31T01:36:40;51.20;;;26.33;;
61907;SDS011;47864;52.526;19.672;2022-10-31T01:38:51;50.05;;;26.83;;
61907;SDS011;47864;52.526;19.672;2022-10-31T01:40:59;33.72;;;21.63;;
61907;SDS011;47864;52.526;19.672;2022-10-31T01:43:09;41.70;;;23.23;;
61907;SDS011;47864;52.526;19.672;2022-10-31T01:45:17;42.45;;;23.05;;
61907;SDS011;47864;52.526;19.672;2022-10-31T01:49:51;57.63;;;25.27;;
61907;SDS011;47864;52.526;19.672;2022-10-31T01:54:33;44.03;;;23.90;;
61907;SDS011;47864;52.526;19.672;2022-10-31T01:56:49;51.58;;;26.98;;
61907;SDS011;47864;52.526;19.672;2022-10-31T01:58:58;50.10;;;27.27;;
61907;SDS011;47864;52.526;19.672;2022-10-31T02:01:07;75.82;;;29.48;;
61907;SDS011;47864;52.526;19.672;2022-10-31T02:03:17;72.97;;;28.83;;
61907;SDS011;47864;52.526;19.672;2022-10-31T02:05:30;62.78;;;30.15;;
61907;SDS011;47864;52.526;19.672;2022-10-31T02:08:18;75.50;;;31.42;;
61907;SDS011;47864;52.526;19.672;2022-10-31T02:10:19;63.85;;;31.80;;
61907;SDS011;47864;52.526;19.672;2022-10-31T02:12:25;62.75;;;31.63;;
61907;SDS011;47864;52.526;19.672;2022-10-31T02:14:31;64.00;;;32.33;;
61907;SDS011;47864;52.526;19.672;2022-10-31T02:16:41;72.95;;;36.20;;
61907;SDS011;47864;52.526;19.672;2022-10-31T02:19:11;60.70;;;32.03;;
61907;SDS011;47864;52.526;19.672;2022-10-31T02:21:45;52.20;;;30.38;;
61907;SDS011;47864;52.526;19.672;2022-10-31T02:27:11;57.20;;;31.25;;
61907;SDS011;47864;52.526;19.672;2022-10-31T02:30:08;56.13;;;32.42;;
61907;SDS011;47864;52.526;19.672;2022-10-31T02:32:27;59.83;;;33.85;;
61907;SDS011;47864;52.526;19.672;2022-10-31T02:35:39;57.08;;;31.75;;
61907;SDS011;47864;52.526;19.672;2022-10-31T02:38:23;60.03;;;33.45;;
61907;SDS011;47864;52.526;19.672;2022-10-31T02:41:17;57.03;;;31.55;;
61907;SDS011;47864;52.526;19.672;2022-10-31T02:43:44;54.05;;;31.70;;
61907;SDS011;47864;52.526;19.672;2022-10-31T02:48:40;61.17;;;34.03;;
61907;SDS011;47864;52.526;19.672;2022-10-31T02:50:49;59.58;;;33.83;;
61907;SDS011;47864;52.526;19.672;2022-10-31T02:53:01;61.90;;;33.72;;
61907;SDS011;47864;52.526;19.672;2022-10-31T02:57:30;57.25;;;31.52;;
61907;SDS011;47864;52.526;19.672;2022-10-31T02:59:35;63.70;;;33.58;;
61907;SDS011;47864;52.526;19.672;2022-10-31T03:06:24;63.20;;;34.08;;
61907;SDS011;47864;52.526;19.672;2022-10-31T03:08:55;61.33;;;34.13;;
61907;SDS011;47864;52.526;19.672;2022-10-31T03:11:13;66.90;;;35.13;;
61907;SDS011;47864;52.526;19.672;2022-10-31T03:15:49;69.22;;;34.47;;
61907;SDS011;47864;52.526;19.672;2022-10-31T03:20:09;74.18;;;36.20;;
61907;SDS011;47864;52.526;19.672;2022-10-31T03:22:21;67.88;;;36.10;;
61907;SDS011;47864;52.526;19.672;2022-10-31T03:24:26;72.68;;;36.40;;
61907;SDS011;47864;52.526;19.672;2022-10-31T03:26:31;68.57;;;35.15;;
61907;SDS011;47864;52.526;19.672;2022-10-31T03:28:36;67.68;;;36.45;;
61907;SDS011;47864;52.526;19.672;2022-10-31T03:30:44;87.45;;;36.15;;
61907;SDS011;47864;52.526;19.672;2022-10-31T03:32:48;85.57;;;34.13;;
61907;SDS011;47864;52.526;19.672;2022-10-31T03:34:55;78.57;;;34.00;;
61907;SDS011;47864;52.526;19.672;2022-10-31T03:37:01;69.68;;;31.95;;
61907;SDS011;47864;52.526;19.672;2022-10-31T03:39:08;75.32;;;31.52;;
61907;SDS011;47864;52.526;19.672;2022-10-31T03:41:16;68.60;;;32.40;;
61907;SDS011;47864;52.526;19.672;2022-10-31T03:43:24;77.00;;;33.80;;
61907;SDS011;47864;52.526;19.672;2022-10-31T03:45:31;96.20;;;33.90;;
61907;SDS011;47864;52.526;19.672;2022-10-31T03:47:37;91.53;;;33.85;;
61907;SDS011;47864;52.526;19.672;2022-10-31T03:49:40;94.03;;;33.03;;
61907;SDS011;47864;52.526;19.672;2022-10-31T03:56:32;81.47;;;29.73;;
61907;SDS011;47864;52.526;19.672;2022-10-31T03:58:45;92.03;;;29.85;;
61907;SDS011;47864;52.526;19.672;2022-10-31T04:05:16;115.65;;;31.58;;
61907;SDS011;47864;52.526;19.672;2022-10-31T04:07:19;100.30;;;33.20;;
61907;SDS011;47864;52.526;19.672;2022-10-31T04:09:25;113.15;;;31.25;;
61907;SDS011;47864;52.526;19.672;2022-10-31T04:13:33;88.43;;;27.02;;
61907;SDS011;47864;52.526;19.672;2022-10-31T04:15:38;66.70;;;26.85;;
61907;SDS011;47864;52.526;19.672;2022-10-31T04:17:42;70.78;;;25.48;;
61907;SDS011;47864;52.526;19.672;2022-10-31T04:19:46;69.05;;;28.63;;
61907;SDS011;47864;52.526;19.672;2022-10-31T04:21:48;67.10;;;26.75;;
61907;SDS011;47864;52.526;19.672;2022-10-31T04:23:50;61.53;;;27.52;;
61907;SDS011;47864;52.526;19.672;2022-10-31T04:25:51;62.63;;;27.60;;
61907;SDS011;47864;52.526;19.672;2022-10-31T04:27:54;69.43;;;27.52;;
61907;SDS011;47864;52.526;19.672;2022-10-31T04:29:56;56.30;;;27.20;;
61907;SDS011;47864;52.526;19.672;2022-10-31T04:31:58;57.05;;;27.27;;
61907;SDS011;47864;52.526;19.672;2022-10-31T04:33:59;55.53;;;27.83;;
61907;SDS011;47864;52.526;19.672;2022-10-31T04:36:01;58.40;;;28.38;;
61907;SDS011;47864;52.526;19.672;2022-10-31T04:38:03;58.42;;;28.65;;
61907;SDS011;47864;52.526;19.672;2022-10-31T04:40:05;54.95;;;28.20;;
61907;SDS011;47864;52.526;19.672;2022-10-31T04:42:07;51.30;;;28.23;;
61907;SDS011;47864;52.526;19.672;2022-10-31T04:44:09;57.13;;;29.10;;
61907;SDS011;47864;52.526;19.672;2022-10-31T04:46:11;52.08;;;28.42;;
61907;SDS011;47864;52.526;19.672;2022-10-31T04:48:13;53.25;;;28.23;;
61907;SDS011;47864;52.526;19.672;2022-10-31T04:50:15;55.00;;;29.65;;
61907;SDS011;47864;52.526;19.672;2022-10-31T04:52:17;54.63;;;28.27;;
61907;SDS011;47864;52.526;19.672;2022-10-31T04:54:18;50.85;;;29.17;;
61907;SDS011;47864;52.526;19.672;2022-10-31T04:56:20;53.55;;;28.65;;
61907;SDS011;47864;52.526;19.672;2022-10-31T04:58:22;51.38;;;28.50;;
61907;SDS011;47864;52.526;19.672;2022-10-31T05:00:24;53.20;;;28.33;;
61907;SDS011;47864;52.526;19.672;2022-10-31T05:02:26;49.50;;;28.20;;
61907;SDS011;47864;52.526;19.672;2022-10-31T05:04:28;50.75;;;28.83;;
61907;SDS011;47864;52.526;19.672;2022-10-31T05:06:29;50.33;;;28.60;;
61907;SDS011;47864;52.526;19.672;2022-10-31T05:08:31;50.45;;;29.08;;
61907;SDS011;47864;52.526;19.672;2022-10-31T05:10:33;50.47;;;30.02;;
61907;SDS011;47864;52.526;19.672;2022-10-31T05:12:35;50.70;;;28.98;;
61907;SDS011;47864;52.526;19.672;2022-10-31T05:14:37;49.28;;;28.90;;
61907;SDS011;47864;52.526;19.672;2022-10-31T05:16:38;48.72;;;28.00;;
61907;SDS011;47864;52.526;19.672;2022-10-31T05:18:40;54.83;;;32.80;;
61907;SDS011;47864;52.526;19.672;2022-10-31T05:20:42;49.55;;;29.52;;
61907;SDS011;47864;52.526;19.672;2022-10-31T05:22:45;48.70;;;28.83;;
61907;SDS011;47864;52.526;19.672;2022-10-31T05:24:48;50.08;;;29.15;;
61907;SDS011;47864;52.526;19.672;2022-10-31T05:26:50;44.17;;;27.17;;
61907;SDS011;47864;52.526;19.672;2022-10-31T05:28:51;48.30;;;28.30;;
61907;SDS011;47864;52.526;19.672;2022-10-31T05:30:53;44.58;;;28.17;;
61907;SDS011;47864;52.526;19.672;2022-10-31T05:32:55;43.58;;;28.88;;
61907;SDS011;47864;52.526;19.672;2022-10-31T05:34:58;46.00;;;28.30;;
61907;SDS011;47864;52.526;19.672;2022-10-31T05:36:59;43.75;;;27.35;;
61907;SDS011;47864;52.526;19.672;2022-10-31T05:39:01;44.72;;;28.50;;
61907;SDS011;47864;52.526;19.672;2022-10-31T05:41:03;51.28;;;27.60;;
61907;SDS011;47864;52.526;19.672;2022-10-31T05:43:05;47.92;;;28.05;;
61907;SDS011;47864;52.526;19.672;2022-10-31T05:45:08;46.35;;;27.67;;
61907;SDS011;47864;52.526;19.672;2022-10-31T05:47:10;40.83;;;25.98;;
61907;SDS011;47864;52.526;19.672;2022-10-31T05:49:12;47.28;;;28.88;;
61907;SDS011;47864;52.526;19.672;2022-10-31T05:51:14;43.40;;;28.15;;
61907;SDS011;47864;52.526;19.672;2022-10-31T05:53:16;46.60;;;28.00;;
61907;SDS011;47864;52.526;19.672;2022-10-31T05:55:18;45.20;;;27.77;;
61907;SDS011;47864;52.526;19.672;2022-10-31T05:57:20;51.35;;;28.13;;
61907;SDS011;47864;52.526;19.672;2022-10-31T05:59:21;43.92;;;28.10;;
61907;SDS011;47864;52.526;19.672;2022-10-31T06:01:23;44.47;;;28.10;;
61907;SDS011;47864;52.526;19.672;2022-10-31T06:03:25;43.42;;;27.80;;
61907;SDS011;47864;52.526;19.672;2022-10-31T06:05:28;44.65;;;27.27;;
61907;SDS011;47864;52.526;19.672;2022-10-31T06:07:33;45.97;;;27.30;;
61907;SDS011;47864;52.526;19.672;2022-10-31T06:09:35;44.83;;;27.63;;
61907;SDS011;47864;52.526;19.672;2022-10-31T06:11:37;43.30;;;27.00;;
61907;SDS011;47864;52.526;19.672;2022-10-31T06:13:39;44.60;;;26.63;;
61907;SDS011;47864;52.526;19.672;2022-10-31T06:15:41;41.45;;;26.17;;
61907;SDS011;47864;52.526;19.672;2022-10-31T06:17:43;39.47;;;25.52;;
61907;SDS011;47864;52.526;19.672;2022-10-31T06:19:45;41.90;;;26.13;;
61907;SDS011;47864;52.526;19.672;2022-10-31T06:21:47;44.03;;;26.20;;
61907;SDS011;47864;52.526;19.672;2022-10-31T06:23:48;40.20;;;25.52;;
61907;SDS011;47864;52.526;19.672;2022-10-31T06:25:50;40.83;;;25.85;;
61907;SDS011;47864;52.526;19.672;2022-10-31T06:27:52;39.13;;;25.25;;
61907;SDS011;47864;52.526;19.672;2022-10-31T06:29:54;39.95;;;25.30;;
61907;SDS011;47864;52.526;19.672;2022-10-31T06:31:56;38.65;;;24.65;;
61907;SDS011;47864;52.526;19.672;2022-10-31T06:33:58;40.47;;;25.60;;
61907;SDS011;47864;52.526;19.672;2022-10-31T06:36:00;44.28;;;25.05;;
61907;SDS011;47864;52.526;19.672;2022-10-31T06:38:02;42.78;;;25.25;;
61907;SDS011;47864;52.526;19.672;2022-10-31T06:40:05;39.33;;;24.63;;
61907;SDS011;47864;52.526;19.672;2022-10-31T06:42:07;42.78;;;24.42;;
61907;SDS011;47864;52.526;19.672;2022-10-31T06:44:09;39.28;;;24.30;;
61907;SDS011;47864;52.526;19.672;2022-10-31T06:46:12;43.60;;;24.95;;
61907;SDS011;47864;52.526;19.672;2022-10-31T06:48:15;53.10;;;28.17;;
61907;SDS011;47864;52.526;19.672;2022-10-31T06:50:19;52.95;;;26.17;;
61907;SDS011;47864;52.526;19.672;2022-10-31T06:52:21;56.97;;;27.17;;
61907;SDS011;47864;52.526;19.672;2022-10-31T06:54:23;49.85;;;27.00;;
61907;SDS011;47864;52.526;19.672;2022-10-31T06:56:25;50.97;;;27.95;;
61907;SDS011;47864;52.526;19.672;2022-10-31T06:58:27;50.67;;;27.63;;
61907;SDS011;47864;52.526;19.672;2022-10-31T07:00:29;61.38;;;29.65;;
61907;SDS011;47864;52.526;19.672;2022-10-31T07:02:31;54.65;;;28.50;;
61907;SDS011;47864;52.526;19.672;2022-10-31T07:04:33;52.75;;;26.70;;
61907;SDS011;47864;52.526;19.672;2022-10-31T07:06:35;60.78;;;28.73;;
61907;SDS011;47864;52.526;19.672;2022-10-31T07:08:37;62.40;;;28.08;;
61907;SDS011;47864;52.526;19.672;2022-10-31T07:10:39;54.13;;;27.13;;
61907;SDS011;47864;52.526;19.672;2022-10-31T07:12:42;56.10;;;28.50;;
61907;SDS011;47864;52.526;19.672;2022-10-31T07:14:44;67.35;;;27.70;;
61907;SDS011;47864;52.526;19.672;2022-10-31T07:16:49;58.28;;;27.88;;
61907;SDS011;47864;52.526;19.672;2022-10-31T07:18:51;55.65;;;27.35;;
61907;SDS011;47864;52.526;19.672;2022-10-31T07:20:53;73.40;;;27.95;;
61907;SDS011;47864;52.526;19.672;2022-10-31T07:22:56;67.03;;;27.65;;
61907;SDS011;47864;52.526;19.672;2022-10-31T07:24:58;64.45;;;25.15;;
61907;SDS011;47864;52.526;19.672;2022-10-31T07:26:59;88.18;;;25.23;;
61907;SDS011;47864;52.526;19.672;2022-10-31T07:29:01;75.10;;;25.45;;
61907;SDS011;47864;52.526;19.672;2022-10-31T07:31:03;61.63;;;25.50;;
61907;SDS011;47864;52.526;19.672;2022-10-31T07:33:05;65.78;;;25.50;;
61907;SDS011;47864;52.526;19.672;2022-10-31T07:35:08;69.32;;;22.13;;
61907;SDS011;47864;52.526;19.672;2022-10-31T07:37:11;55.53;;;22.05;;
61907;SDS011;47864;52.526;19.672;2022-10-31T07:39:13;58.97;;;24.42;;
61907;SDS011;47864;52.526;19.672;2022-10-31T07:41:15;69.13;;;23.52;;
61907;SDS011;47864;52.526;19.672;2022-10-31T07:43:17;61.30;;;28.23;;
61907;SDS011;47864;52.526;19.672;2022-10-31T07:45:19;66.28;;;26.63;;
61907;SDS011;47864;52.526;19.672;2022-10-31T07:47:22;48.38;;;21.17;;
61907;SDS011;47864;52.526;19.672;2022-10-31T07:49:23;50.38;;;20.88;;
61907;SDS011;47864;52.526;19.672;2022-10-31T07:51:25;57.92;;;20.95;;
61907;SDS011;47864;52.526;19.672;2022-10-31T07:53:27;48.47;;;22.13;;
61907;SDS011;47864;52.526;19.672;2022-10-31T07:55:29;46.50;;;21.83;;
61907;SDS011;47864;52.526;19.672;2022-10-31T07:57:31;44.10;;;22.50;;
61907;SDS011;47864;52.526;19.672;2022-10-31T08:01:36;43.58;;;21.17;;
61907;SDS011;47864;52.526;19.672;2022-10-31T08:03:38;47.88;;;21.30;;
61907;SDS011;47864;52.526;19.672;2022-10-31T08:05:40;47.88;;;22.00;;
61907;SDS011;47864;52.526;19.672;2022-10-31T08:07:42;41.85;;;21.75;;
61907;SDS011;47864;52.526;19.672;2022-10-31T08:09:44;51.85;;;21.08;;
61907;SDS011;47864;52.526;19.672;2022-10-31T08:11:46;37.97;;;20.98;;
61907;SDS011;47864;52.526;19.672;2022-10-31T08:13:48;51.58;;;21.85;;
61907;SDS011;47864;52.526;19.672;2022-10-31T08:15:50;45.80;;;21.90;;
61907;SDS011;47864;52.526;19.672;2022-10-31T08:17:52;57.00;;;20.50;;
61907;SDS011;47864;52.526;19.672;2022-10-31T08:19:54;39.78;;;20.55;;
61907;SDS011;47864;52.526;19.672;2022-10-31T08:21:56;45.22;;;20.17;;
61907;SDS011;47864;52.526;19.672;2022-10-31T08:23:57;50.75;;;21.38;;
61907;SDS011;47864;52.526;19.672;2022-10-31T08:25:59;42.42;;;20.20;;
61907;SDS011;47864;52.526;19.672;2022-10-31T08:28:01;48.72;;;20.35;;
61907;SDS011;47864;52.526;19.672;2022-10-31T08:30:04;40.63;;;21.10;;
61907;SDS011;47864;52.526;19.672;2022-10-31T08:32:06;42.75;;;20.90;;
61907;SDS011;47864;52.526;19.672;2022-10-31T08:34:08;43.33;;;21.35;;
61907;SDS011;47864;52.526;19.672;2022-10-31T08:36:10;40.20;;;20.30;;
61907;SDS011;47864;52.526;19.672;2022-10-31T08:38:12;39.72;;;20.75;;
61907;SDS011;47864;52.526;19.672;2022-10-31T08:40:14;51.88;;;22.40;;
61907;SDS011;47864;52.526;19.672;2022-10-31T08:42:16;39.13;;;20.10;;
61907;SDS011;47864;52.526;19.672;2022-10-31T08:44:17;44.88;;;21.23;;
61907;SDS011;47864;52.526;19.672;2022-10-31T08:46:19;44.05;;;20.80;;
61907;SDS011;47864;52.526;19.672;2022-10-31T08:48:21;61.08;;;22.63;;
61907;SDS011;47864;52.526;19.672;2022-10-31T08:50:23;43.03;;;21.65;;
61907;SDS011;47864;52.526;19.672;2022-10-31T08:52:25;43.65;;;21.58;;
61907;SDS011;47864;52.526;19.672;2022-10-31T08:54:47;57.20;;;22.27;;
61907;SDS011;47864;52.526;19.672;2022-10-31T08:56:52;46.97;;;24.13;;
61907;SDS011;47864;52.526;19.672;2022-10-31T08:58:55;50.65;;;23.90;;
61907;SDS011;47864;52.526;19.672;2022-10-31T09:00:58;53.38;;;23.85;;
61907;SDS011;47864;52.526;19.672;2022-10-31T09:03:02;59.63;;;24.08;;
61907;SDS011;47864;52.526;19.672;2022-10-31T09:05:05;54.70;;;23.27;;
61907;SDS011;47864;52.526;19.672;2022-10-31T09:07:07;50.10;;;25.98;;
61907;SDS011;47864;52.526;19.672;2022-10-31T09:09:24;46.65;;;22.65;;
61907;SDS011;47864;52.526;19.672;2022-10-31T09:11:26;49.33;;;22.70;;
61907;SDS011;47864;52.526;19.672;2022-10-31T09:13:28;45.13;;;23.02;;
61907;SDS011;47864;52.526;19.672;2022-10-31T09:15:30;43.67;;;22.05;;
61907;SDS011;47864;52.526;19.672;2022-10-31T09:17:31;47.33;;;23.23;;
61907;SDS011;47864;52.526;19.672;2022-10-31T09:19:33;44.40;;;22.85;;
61907;SDS011;47864;52.526;19.672;2022-10-31T09:21:35;49.53;;;23.27;;
61907;SDS011;47864;52.526;19.672;2022-10-31T09:23:37;46.25;;;23.48;;
61907;SDS011;47864;52.526;19.672;2022-10-31T09:25:39;48.03;;;23.42;;
61907;SDS011;47864;52.526;19.672;2022-10-31T09:27:47;41.90;;;23.98;;
61907;SDS011;47864;52.526;19.672;2022-10-31T09:29:49;44.97;;;23.80;;
61907;SDS011;47864;52.526;19.672;2022-10-31T09:31:51;44.80;;;24.35;;
61907;SDS011;47864;52.526;19.672;2022-10-31T09:33:53;49.47;;;25.42;;
61907;SDS011;47864;52.526;19.672;2022-10-31T09:35:57;57.05;;;28.00;;
61907;SDS011;47864;52.526;19.672;2022-10-31T09:38:03;46.00;;;24.35;;
61907;SDS011;47864;52.526;19.672;2022-10-31T09:40:07;51.17;;;26.30;;
61907;SDS011;47864;52.526;19.672;2022-10-31T09:49:02;59.15;;;27.50;;
61907;SDS011;47864;52.526;19.672;2022-10-31T09:50:59;43.83;;;27.00;;
61907;SDS011;47864;52.526;19.672;2022-10-31T09:53:08;48.63;;;25.38;;
61907;SDS011;47864;52.526;19.672;2022-10-31T09:55:16;43.13;;;24.77;;
61907;SDS011;47864;52.526;19.672;2022-10-31T09:57:33;38.47;;;23.55;;
61907;SDS011;47864;52.526;19.672;2022-10-31T09:59:38;40.47;;;24.25;;
61907;SDS011;47864;52.526;19.672;2022-10-31T10:01:49;53.60;;;27.92;;
61907;SDS011;47864;52.526;19.672;2022-10-31T10:03:58;47.97;;;26.98;;
61907;SDS011;47864;52.526;19.672;2022-10-31T10:08:25;41.90;;;24.10;;
61907;SDS011;47864;52.526;19.672;2022-10-31T10:10:35;42.90;;;25.00;;
61907;SDS011;47864;52.526;19.672;2022-10-31T10:15:37;49.47;;;28.95;;
61907;SDS011;47864;52.526;19.672;2022-10-31T10:31:40;46.20;;;27.58;;
61907;SDS011;47864;52.526;19.672;2022-10-31T10:35:55;43.75;;;24.13;;
61907;SDS011;47864;52.526;19.672;2022-10-31T10:40:37;45.97;;;26.25;;
61907;SDS011;47864;52.526;19.672;2022-10-31T10:42:39;44.40;;;25.98;;
61907;SDS011;47864;52.526;19.672;2022-10-31T10:44:46;42.60;;;26.02;;
61907;SDS011;47864;52.526;19.672;2022-10-31T10:46:54;43.70;;;26.02;;
61907;SDS011;47864;52.526;19.672;2022-10-31T10:49:04;46.70;;;25.02;;
61907;SDS011;47864;52.526;19.672;2022-10-31T10:51:10;49.85;;;25.10;;
61907;SDS011;47864;52.526;19.672;2022-10-31T10:56:25;46.88;;;26.08;;
61907;SDS011;47864;52.526;19.672;2022-10-31T10:58:38;50.20;;;26.30;;
61907;SDS011;47864;52.526;19.672;2022-10-31T11:00:45;41.65;;;24.52;;
61907;SDS011;47864;52.526;19.672;2022-10-31T11:02:48;41.70;;;24.70;;
61907;SDS011;47864;52.526;19.672;2022-10-31T11:04:51;41.70;;;24.27;;
61907;SDS011;47864;52.526;19.672;2022-10-31T11:07:06;42.38;;;24.75;;
61907;SDS011;47864;52.526;19.672;2022-10-31T11:09:09;45.33;;;25.15;;
61907;SDS011;47864;52.526;19.672;2022-10-31T11:13:22;44.80;;;25.77;;
61907;SDS011;47864;52.526;19.672;2022-10-31T11:15:25;44.08;;;26.02;;
61907;SDS011;47864;52.526;19.672;2022-10-31T11:17:33;45.58;;;24.65;;
61907;SDS011;47864;52.526;19.672;2022-10-31T11:19:39;43.75;;;25.23;;
61907;SDS011;47864;52.526;19.672;2022-10-31T11:21:41;47.53;;;26.17;;
61907;SDS011;47864;52.526;19.672;2022-10-31T11:23:47;45.08;;;24.63;;
61907;SDS011;47864;52.526;19.672;2022-10-31T11:25:50;47.33;;;25.85;;
61907;SDS011;47864;52.526;19.672;2022-10-31T11:28:00;47.20;;;25.65;;
61907;SDS011;47864;52.526;19.672;2022-10-31T11:30:06;48.72;;;26.40;;
61907;SDS011;47864;52.526;19.672;2022-10-31T11:32:17;43.22;;;25.27;;
61907;SDS011;47864;52.526;19.672;2022-10-31T11:34:31;41.88;;;24.08;;
61907;SDS011;47864;52.526;19.672;2022-10-31T11:36:37;45.65;;;24.52;;
61907;SDS011;47864;52.526;19.672;2022-10-31T11:38:43;43.53;;;26.15;;
61907;SDS011;47864;52.526;19.672;2022-10-31T11:40:56;47.05;;;27.73;;
61907;SDS011;47864;52.526;19.672;2022-10-31T11:43:01;51.80;;;29.08;;
61907;SDS011;47864;52.526;19.672;2022-10-31T11:45:06;49.08;;;26.75;;
61907;SDS011;47864;52.526;19.672;2022-10-31T11:47:20;75.22;;;65.95;;
61907;SDS011;47864;52.526;19.672;2022-10-31T11:49:30;47.53;;;30.40;;
61907;SDS011;47864;52.526;19.672;2022-10-31T11:51:36;47.70;;;29.75;;
61907;SDS011;47864;52.526;19.672;2022-10-31T11:53:47;49.28;;;30.25;;
61907;SDS011;47864;52.526;19.672;2022-10-31T11:56:14;49.53;;;31.50;;
61907;SDS011;47864;52.526;19.672;2022-10-31T11:58:21;47.83;;;27.25;;
61907;SDS011;47864;52.526;19.672;2022-10-31T12:00:28;47.28;;;27.23;;
61907;SDS011;47864;52.526;19.672;2022-10-31T12:02:32;55.38;;;39.80;;
61907;SDS011;47864;52.526;19.672;2022-10-31T12:04:41;51.30;;;28.83;;
61907;SDS011;47864;52.526;19.672;2022-10-31T12:06:48;44.35;;;26.35;;
61907;SDS011;47864;52.526;19.672;2022-10-31T12:08:52;45.95;;;28.33;;
61907;SDS011;47864;52.526;19.672;2022-10-31T12:10:59;41.85;;;25.20;;
61907;SDS011;47864;52.526;19.672;2022-10-31T12:13:18;43.50;;;26.02;;
61907;SDS011;47864;52.526;19.672;2022-10-31T12:15:35;46.22;;;25.80;;
61907;SDS011;47864;52.526;19.672;2022-10-31T12:22:17;46.10;;;26.15;;
61907;SDS011;47864;52.526;19.672;2022-10-31T12:24:46;49.65;;;24.25;;
61907;SDS011;47864;52.526;19.672;2022-10-31T12:27:12;42.95;;;25.38;;
61907;SDS011;47864;52.526;19.672;2022-10-31T12:34:40;55.90;;;25.40;;
61907;SDS011;47864;52.526;19.672;2022-10-31T12:36:53;45.13;;;24.83;;
61907;SDS011;47864;52.526;19.672;2022-10-31T12:45:59;41.22;;;24.80;;
61907;SDS011;47864;52.526;19.672;2022-10-31T12:48:06;46.92;;;26.55;;
61907;SDS011;47864;52.526;19.672;2022-10-31T12:50:39;46.53;;;25.80;;
61907;SDS011;47864;52.526;19.672;2022-10-31T12:55:34;46.85;;;26.25;;
61907;SDS011;47864;52.526;19.672;2022-10-31T12:57:54;46.80;;;25.70;;
61907;SDS011;47864;52.526;19.672;2022-10-31T13:00:20;44.35;;;26.98;;
61907;SDS011;47864;52.526;19.672;2022-10-31T13:02:32;50.90;;;26.35;;
61907;SDS011;47864;52.526;19.672;2022-10-31T13:04:56;45.35;;;26.45;;
61907;SDS011;47864;52.526;19.672;2022-10-31T13:07:01;57.35;;;28.48;;
61907;SDS011;47864;52.526;19.672;2022-10-31T13:09:08;47.35;;;26.67;;
61907;SDS011;47864;52.526;19.672;2022-10-31T13:13:37;50.08;;;27.23;;
61907;SDS011;47864;52.526;19.672;2022-10-31T13:16:04;56.17;;;28.83;;
61907;SDS011;47864;52.526;19.672;2022-10-31T13:18:16;58.58;;;30.00;;
61907;SDS011;47864;52.526;19.672;2022-10-31T13:20:28;58.03;;;28.92;;
61907;SDS011;47864;52.526;19.672;2022-10-31T13:22:33;61.60;;;29.58;;
61907;SDS011;47864;52.526;19.672;2022-10-31T13:24:40;58.10;;;28.23;;
61907;SDS011;47864;52.526;19.672;2022-10-31T13:26:56;64.40;;;31.00;;
61907;SDS011;47864;52.526;19.672;2022-10-31T13:31:33;63.50;;;31.30;;
61907;SDS011;47864;52.526;19.672;2022-10-31T13:33:37;63.78;;;32.38;;
61907;SDS011;47864;52.526;19.672;2022-10-31T13:41:14;59.83;;;31.20;;
61907;SDS011;47864;52.526;19.672;2022-10-31T13:45:35;66.45;;;32.15;;
61907;SDS011;47864;52.526;19.672;2022-10-31T13:47:36;70.78;;;32.92;;
61907;SDS011;47864;52.526;19.672;2022-10-31T13:49:39;62.65;;;29.45;;
61907;SDS011;47864;52.526;19.672;2022-10-31T13:51:41;84.18;;;33.45;;
61907;SDS011;47864;52.526;19.672;2022-10-31T13:56:05;73.75;;;33.25;;
61907;SDS011;47864;52.526;19.672;2022-10-31T13:58:26;69.90;;;31.30;;
61907;SDS011;47864;52.526;19.672;2022-10-31T14:00:30;63.80;;;31.30;;